createdAt,value
2022-12-03T00:00:07.437Z,89.37
2022-12-03T00:01:04.291Z,89.41
2022-12-03T00:02:03.339Z,89.46
2022-12-03T00:03:03.413Z,89.60
2022-12-03T00:04:03.358Z,89.63
2022-12-03T00:05:03.208Z,89.75
2022-12-03T00:06:03.200Z,89.79
2022-12-03T00:07:03.212Z,89.82
2022-12-03T00:08:03.278Z,89.84
2022-12-03T00:09:03.160Z,89.82
2022-12-03T00:10:03.150Z,89.88
2022-12-03T00:11:03.165Z,89.80
2022-12-03T00:12:03.129Z,89.67
2022-12-03T00:13:03.130Z,89.55
2022-12-03T00:14:03.101Z,89.61
2022-12-03T00:15:03.088Z,89.59
2022-12-03T00:16:03.146Z,89.50
2022-12-03T00:17:03.065Z,89.56
2022-12-03T00:18:03.050Z,89.69
2022-12-03T00:19:03.059Z,89.72
2022-12-03T00:20:03.028Z,89.81
2022-12-03T00:21:03.010Z,89.78
2022-12-03T00:22:02.998Z,89.76
2022-12-03T00:23:02.980Z,89.78
2022-12-03T00:24:02.971Z,89.69
2022-12-03T00:25:02.978Z,89.65
2022-12-03T00:26:02.947Z,89.71
2022-12-03T00:27:02.929Z,89.78
2022-12-03T00:28:02.922Z,89.86
2022-12-03T00:29:02.907Z,89.89
2022-12-03T00:30:02.888Z,89.80
2022-12-03T00:31:02.933Z,89.75
2022-12-03T00:32:02.872Z,89.72
2022-12-03T00:33:02.854Z,89.78
2022-12-03T00:34:02.845Z,89.88
2022-12-03T00:35:02.826Z,89.91
2022-12-03T00:36:02.817Z,90.01
2022-12-03T00:37:02.817Z,89.98
2022-12-03T00:38:02.797Z,90.05
2022-12-03T00:39:02.767Z,90.12
2022-12-03T00:40:02.805Z,90.13
2022-12-03T00:41:02.746Z,90.09
2022-12-03T00:42:02.748Z,90.01
2022-12-03T00:43:02.737Z,90.10
2022-12-03T00:44:02.727Z,90.13
2022-12-03T00:45:02.696Z,90.12
2022-12-03T00:46:02.756Z,90.15
2022-12-03T00:47:02.704Z,90.14
2022-12-03T00:48:02.656Z,90.19
2022-12-03T00:49:02.660Z,90.16
2022-12-03T00:50:02.644Z,90.25
2022-12-03T00:51:02.615Z,90.35
2022-12-03T00:52:02.605Z,90.40
2022-12-03T00:53:02.601Z,90.38
2022-12-03T00:54:02.587Z,90.27
2022-12-03T00:55:02.585Z,90.27
2022-12-03T00:56:02.562Z,90.21
2022-12-03T00:57:02.547Z,90.18
2022-12-03T00:58:02.536Z,90.14
2022-12-03T00:59:02.514Z,90.16
2022-12-03T01:00:02.506Z,90.19
2022-12-03T01:01:02.516Z,90.13
2022-12-03T01:02:02.552Z,90.09
2022-12-03T01:03:02.464Z,90.11
2022-12-03T01:04:02.455Z,90.13
2022-12-03T01:05:02.491Z,90.22
2022-12-03T01:06:02.434Z,90.20
2022-12-03T01:07:02.442Z,89.71
2022-12-03T01:08:02.462Z,89.41
2022-12-03T01:09:02.391Z,89.41
2022-12-03T01:10:02.384Z,89.64
2022-12-03T01:11:02.363Z,89.74
2022-12-03T01:12:02.355Z,89.86
2022-12-03T01:13:02.355Z,89.93
2022-12-03T01:14:02.332Z,90.14
2022-12-03T01:15:02.316Z,90.18
2022-12-03T01:16:02.354Z,90.06
2022-12-03T01:17:02.286Z,89.97
2022-12-03T01:18:02.280Z,90.08
2022-12-03T01:19:02.273Z,90.07
2022-12-03T01:20:02.263Z,90.21
2022-12-03T01:21:02.246Z,90.31
2022-12-03T01:22:02.212Z,90.34
2022-12-03T01:23:02.211Z,90.47
2022-12-03T01:24:02.192Z,90.46
2022-12-03T01:25:02.202Z,90.32
2022-12-03T01:26:02.168Z,90.17
2022-12-03T01:27:02.152Z,90.08
2022-12-03T01:28:02.145Z,90.13
2022-12-03T01:29:02.131Z,90.12
2022-12-03T01:30:02.121Z,90.01
2022-12-03T01:31:02.194Z,89.87
2022-12-03T01:32:02.090Z,89.84
2022-12-03T01:33:02.080Z,89.91
2022-12-03T01:34:02.072Z,89.90
2022-12-03T01:35:02.060Z,89.88
2022-12-03T01:36:02.040Z,89.86
2022-12-03T01:37:02.041Z,89.88
2022-12-03T01:38:02.022Z,89.78
2022-12-03T01:39:02.001Z,89.71
2022-12-03T01:40:01.989Z,89.68
2022-12-03T01:41:04.845Z,89.66
2022-12-03T01:42:02.981Z,89.67
2022-12-03T01:43:01.959Z,89.60
2022-12-03T01:44:01.930Z,89.63
2022-12-03T01:45:01.929Z,89.61
2022-12-03T01:46:01.911Z,89.64
2022-12-03T01:47:01.974Z,89.71
2022-12-03T01:48:01.899Z,89.73
2022-12-03T01:49:01.878Z,89.77
2022-12-03T01:50:01.859Z,89.84
2022-12-03T01:51:01.859Z,89.83
2022-12-03T01:52:01.828Z,89.72
2022-12-03T01:53:01.833Z,89.81
2022-12-03T01:54:01.819Z,89.72
2022-12-03T01:55:01.812Z,89.68
2022-12-03T01:56:01.789Z,89.68
2022-12-03T01:57:01.776Z,89.69
2022-12-03T01:58:01.753Z,89.65
2022-12-03T01:59:01.749Z,89.69
2022-12-03T02:00:01.752Z,89.69
2022-12-03T02:01:01.716Z,89.55
2022-12-03T02:02:01.739Z,89.45
2022-12-03T02:03:01.703Z,89.42
2022-12-03T02:04:01.764Z,89.44
2022-12-03T02:05:01.670Z,89.49
2022-12-03T02:06:01.667Z,89.58
2022-12-03T02:07:01.646Z,89.62
2022-12-03T02:08:01.756Z,89.57
2022-12-03T02:09:01.616Z,89.46
2022-12-03T02:10:01.597Z,89.49
2022-12-03T02:11:01.589Z,89.66
2022-12-03T02:12:01.585Z,89.66
2022-12-03T02:13:01.565Z,89.55
2022-12-03T02:14:01.548Z,89.32
2022-12-03T02:15:01.545Z,89.30
2022-12-03T02:16:01.592Z,89.43
2022-12-03T02:17:01.514Z,89.46
2022-12-03T02:18:01.514Z,89.41
2022-12-03T02:19:01.485Z,89.35
2022-12-03T02:20:01.469Z,89.37
2022-12-03T02:21:01.473Z,89.50
2022-12-03T02:22:01.444Z,89.44
2022-12-03T02:23:01.437Z,89.25
2022-12-03T02:24:01.437Z,89.27
2022-12-03T02:25:01.411Z,89.16
2022-12-03T02:26:01.396Z,89.25
2022-12-03T02:27:01.392Z,89.20
2022-12-03T02:28:01.364Z,89.24
2022-12-03T02:29:01.354Z,89.30
2022-12-03T02:30:01.363Z,89.41
2022-12-03T02:31:01.384Z,89.58
2022-12-03T02:32:01.316Z,89.39
2022-12-03T02:33:01.304Z,88.83
2022-12-03T02:34:01.283Z,88.67
2022-12-03T02:35:01.273Z,88.59
2022-12-03T02:36:03.821Z,88.67
2022-12-03T02:37:01.263Z,88.70
2022-12-03T02:38:01.232Z,88.73
2022-12-03T02:39:01.223Z,88.72
2022-12-03T02:40:01.203Z,88.83
2022-12-03T02:41:01.207Z,88.96
2022-12-03T02:42:01.193Z,89.03
2022-12-03T02:43:02.181Z,89.00
2022-12-03T02:44:01.152Z,89.00
2022-12-03T02:45:05.114Z,89.04
2022-12-03T02:46:01.134Z,89.02
2022-12-03T02:47:01.202Z,88.92
2022-12-03T02:48:01.131Z,88.78
2022-12-03T02:49:01.102Z,88.82
2022-12-03T02:50:01.086Z,88.84
2022-12-03T02:51:01.071Z,88.81
2022-12-03T02:52:01.051Z,88.79
2022-12-03T02:53:01.052Z,88.68
2022-12-03T02:54:01.041Z,88.71
2022-12-03T02:55:01.019Z,88.59
2022-12-03T02:56:01.000Z,88.50
2022-12-03T02:57:00.980Z,88.36
2022-12-03T02:58:00.979Z,88.21
2022-12-03T02:59:00.963Z,88.07
2022-12-03T03:00:00.980Z,87.85
2022-12-03T03:01:01.010Z,87.79
2022-12-03T03:02:00.945Z,87.89
2022-12-03T03:03:00.918Z,87.90
2022-12-03T03:04:00.902Z,87.82
2022-12-03T03:05:00.890Z,87.86
2022-12-03T03:06:00.903Z,87.91
2022-12-03T03:07:00.859Z,87.85
2022-12-03T03:08:00.967Z,87.77
2022-12-03T03:09:00.839Z,87.54
2022-12-03T03:10:00.821Z,87.52
2022-12-03T03:11:00.810Z,87.59
2022-12-03T03:12:00.809Z,87.60
2022-12-03T03:13:00.781Z,87.66
2022-12-03T03:14:00.765Z,87.69
2022-12-03T03:15:00.757Z,87.80
2022-12-03T03:16:00.823Z,87.77
2022-12-03T03:17:01.739Z,87.98
2022-12-03T03:18:00.729Z,87.44
2022-12-03T03:19:00.707Z,86.97
2022-12-03T03:20:00.694Z,86.83
2022-12-03T03:21:00.679Z,86.80
2022-12-03T03:22:00.658Z,86.68
2022-12-03T03:23:00.657Z,86.64
2022-12-03T03:24:00.678Z,86.94
2022-12-03T03:25:00.626Z,87.21
2022-12-03T03:26:00.615Z,87.06
2022-12-03T03:27:00.607Z,86.96
2022-12-03T03:28:00.585Z,86.94
2022-12-03T03:29:00.576Z,87.10
2022-12-03T03:30:00.569Z,87.34
2022-12-03T03:31:00.549Z,87.53
2022-12-03T03:32:00.593Z,87.60
2022-12-03T03:33:00.527Z,87.57
2022-12-03T03:34:00.534Z,87.68
2022-12-03T03:35:00.496Z,87.79
2022-12-03T03:36:00.535Z,87.84
2022-12-03T03:37:00.483Z,87.91
2022-12-03T03:38:00.458Z,87.85
2022-12-03T03:39:00.445Z,87.73
2022-12-03T03:40:00.425Z,87.77
2022-12-03T03:41:00.427Z,87.84
2022-12-03T03:42:00.417Z,87.77
2022-12-03T03:43:00.397Z,87.78
2022-12-03T03:44:00.456Z,87.72
2022-12-03T03:45:00.369Z,87.68
2022-12-03T03:46:00.400Z,87.71
2022-12-03T03:47:00.346Z,87.80
2022-12-03T03:48:00.337Z,88.05
2022-12-03T03:49:00.316Z,87.61
2022-12-03T03:50:00.294Z,87.10
2022-12-03T03:51:00.286Z,86.96
2022-12-03T03:52:00.277Z,87.04
2022-12-03T03:53:00.262Z,87.19
2022-12-03T03:54:00.264Z,87.28
2022-12-03T03:55:00.252Z,87.17
2022-12-03T03:56:00.214Z,87.17
2022-12-03T03:57:00.204Z,87.41
2022-12-03T03:58:00.192Z,87.44
2022-12-03T03:59:00.184Z,87.42
2022-12-03T04:00:00.191Z,87.30
2022-12-03T04:01:00.327Z,86.90
2022-12-03T04:02:00.145Z,86.18
2022-12-03T04:03:00.133Z,86.01
2022-12-03T04:04:00.202Z,86.18
2022-12-03T04:05:00.112Z,86.02
2022-12-03T04:06:00.103Z,85.82
2022-12-03T04:07:00.111Z,85.82
2022-12-03T04:08:00.181Z,86.01
2022-12-03T04:09:00.052Z,86.10
2022-12-03T04:10:00.032Z,86.17
2022-12-03T04:11:00.029Z,86.19
2022-12-03T04:12:00.042Z,86.51
2022-12-03T04:13:00.003Z,86.62
2022-12-03T04:13:59.992Z,86.55
2022-12-03T04:14:59.972Z,86.23
2022-12-03T04:15:59.952Z,86.00
2022-12-03T04:16:59.993Z,86.20
2022-12-03T04:17:59.951Z,86.35
2022-12-03T04:18:59.929Z,86.43
2022-12-03T04:19:59.908Z,86.57
2022-12-03T04:20:59.901Z,86.85
2022-12-03T04:21:59.881Z,86.93
2022-12-03T04:22:59.870Z,86.64
2022-12-03T04:23:59.882Z,86.35
2022-12-03T04:24:59.850Z,86.36
2022-12-03T04:25:59.829Z,85.91
2022-12-03T04:26:59.831Z,85.62
2022-12-03T04:27:59.800Z,85.27
2022-12-03T04:28:59.792Z,85.56
2022-12-03T04:29:59.800Z,85.73
2022-12-03T04:30:59.808Z,85.56
2022-12-03T04:31:59.755Z,85.32
2022-12-03T04:32:59.748Z,85.05
2022-12-03T04:33:59.721Z,85.24
2022-12-03T04:34:59.719Z,85.30
2022-12-03T04:35:59.784Z,85.42
2022-12-03T04:36:59.689Z,85.45
2022-12-03T04:37:59.669Z,85.47
2022-12-03T04:38:59.670Z,85.62
2022-12-03T04:39:59.648Z,85.61
2022-12-03T04:40:59.639Z,85.49
2022-12-03T04:41:59.653Z,85.61
2022-12-03T04:42:59.622Z,85.86
2022-12-03T04:43:59.591Z,85.85
2022-12-03T04:44:59.590Z,86.00
2022-12-03T04:45:59.662Z,85.87
2022-12-03T04:46:59.558Z,85.51
2022-12-03T04:47:59.562Z,85.49
2022-12-03T04:48:59.542Z,85.17
2022-12-03T04:49:59.526Z,85.16
2022-12-03T04:50:59.511Z,85.17
2022-12-03T04:51:59.497Z,85.36
2022-12-03T04:52:59.488Z,85.38
2022-12-03T04:53:59.487Z,85.40
2022-12-03T04:54:59.458Z,85.50
2022-12-03T04:55:59.436Z,85.59
2022-12-03T04:56:59.437Z,85.57
2022-12-03T04:57:59.408Z,85.56
2022-12-03T04:58:59.407Z,85.52
2022-12-03T04:59:59.404Z,85.53
2022-12-03T05:00:59.421Z,85.40
2022-12-03T05:01:59.455Z,85.19
2022-12-03T05:02:59.417Z,85.35
2022-12-03T05:03:59.336Z,85.44
2022-12-03T05:04:59.325Z,85.28
2022-12-03T05:05:59.328Z,85.24
2022-12-03T05:06:59.314Z,84.84
2022-12-03T05:07:59.344Z,84.61
2022-12-03T05:08:59.276Z,84.40
2022-12-03T05:09:59.254Z,84.56
2022-12-03T05:10:59.246Z,84.36
2022-12-03T05:11:59.254Z,84.31
2022-12-03T05:12:59.239Z,84.43
2022-12-03T05:13:59.210Z,84.25
2022-12-03T05:14:59.194Z,84.27
2022-12-03T05:15:59.184Z,84.56
2022-12-03T05:16:59.282Z,84.48
2022-12-03T05:17:59.167Z,84.55
2022-12-03T05:18:59.144Z,84.71
2022-12-03T05:19:59.128Z,84.88
2022-12-03T05:20:59.137Z,84.79
2022-12-03T05:21:59.093Z,84.89
2022-12-03T05:22:59.093Z,84.98
2022-12-03T05:23:59.115Z,84.80
2022-12-03T05:24:59.065Z,84.29
2022-12-03T05:25:59.049Z,84.48
2022-12-03T05:26:59.043Z,84.58
2022-12-03T05:27:59.024Z,84.81
2022-12-03T05:28:59.020Z,84.82
2022-12-03T05:29:59.015Z,84.61
2022-12-03T05:30:59.022Z,84.78
2022-12-03T05:31:58.974Z,84.76
2022-12-03T05:32:58.964Z,84.68
2022-12-03T05:33:58.947Z,84.72
2022-12-03T05:34:58.943Z,84.54
2022-12-03T05:35:58.935Z,84.52
2022-12-03T05:36:58.912Z,84.81
2022-12-03T05:37:58.900Z,84.93
2022-12-03T05:38:58.893Z,84.85
2022-12-03T05:39:58.874Z,84.48
2022-12-03T05:40:58.851Z,84.47
2022-12-03T05:41:58.873Z,84.46
2022-12-03T05:42:58.835Z,84.49
2022-12-03T05:43:58.811Z,84.65
2022-12-03T05:44:58.802Z,84.86
2022-12-03T05:45:58.827Z,84.90
2022-12-03T05:46:58.782Z,84.92
2022-12-03T05:47:58.791Z,85.04
2022-12-03T05:48:58.755Z,85.14
2022-12-03T05:49:58.734Z,85.07
2022-12-03T05:50:58.731Z,85.08
2022-12-03T05:51:59.025Z,84.75
2022-12-03T05:52:58.703Z,84.43
2022-12-03T05:53:58.702Z,84.22
2022-12-03T05:54:58.671Z,84.36
2022-12-03T05:55:58.659Z,84.43
2022-12-03T05:56:58.649Z,84.45
2022-12-03T05:57:58.631Z,84.32
2022-12-03T05:58:58.620Z,84.31
2022-12-03T05:59:58.640Z,83.82
2022-12-03T06:00:58.600Z,83.69
2022-12-03T06:01:58.570Z,83.57
2022-12-03T06:02:58.655Z,83.30
2022-12-03T06:03:58.579Z,83.26
2022-12-03T06:04:58.549Z,83.00
2022-12-03T06:05:58.550Z,83.21
2022-12-03T06:06:58.519Z,83.39
2022-12-03T06:07:58.552Z,83.51
2022-12-03T06:08:58.497Z,83.81
2022-12-03T06:09:58.481Z,83.93
2022-12-03T06:10:58.470Z,84.02
2022-12-03T06:11:58.468Z,83.85
2022-12-03T06:12:58.439Z,83.60
2022-12-03T06:13:58.427Z,82.96
2022-12-03T06:14:58.409Z,83.04
2022-12-03T06:15:58.453Z,83.18
2022-12-03T06:16:58.397Z,83.16
2022-12-03T06:17:58.389Z,83.49
2022-12-03T06:18:58.369Z,83.70
2022-12-03T06:19:58.349Z,83.83
2022-12-03T06:20:58.339Z,84.09
2022-12-03T06:21:58.317Z,84.20
2022-12-03T06:22:58.319Z,84.22
2022-12-03T06:23:58.316Z,84.48
2022-12-03T06:25:03.369Z,84.55
2022-12-03T06:25:59.268Z,84.70
2022-12-03T06:26:58.258Z,84.80
2022-12-03T06:27:58.237Z,84.92
2022-12-03T06:28:58.228Z,84.97
2022-12-03T06:29:58.227Z,84.69
2022-12-03T06:30:58.261Z,84.61
2022-12-03T06:31:58.188Z,84.76
2022-12-03T06:32:58.176Z,84.86
2022-12-03T06:33:58.168Z,85.12
2022-12-03T06:34:58.156Z,85.04
2022-12-03T06:35:58.156Z,84.81
2022-12-03T06:36:58.127Z,84.88
2022-12-03T06:37:58.131Z,85.00
2022-12-03T06:38:58.106Z,85.09
2022-12-03T06:39:58.088Z,85.22
2022-12-03T06:40:58.077Z,85.26
2022-12-03T06:41:58.088Z,85.30
2022-12-03T06:42:58.045Z,85.35
2022-12-03T06:43:58.035Z,85.36
2022-12-03T06:44:58.030Z,85.33
2022-12-03T06:45:58.014Z,85.30
2022-12-03T06:46:58.083Z,85.32
2022-12-03T06:47:58.015Z,85.47
2022-12-03T06:48:57.974Z,85.52
2022-12-03T06:49:57.955Z,85.64
2022-12-03T06:50:57.959Z,85.57
2022-12-03T06:51:57.929Z,85.53
2022-12-03T06:52:57.924Z,85.51
2022-12-03T06:53:57.925Z,85.49
2022-12-03T06:54:57.902Z,85.54
2022-12-03T06:55:57.874Z,85.52
2022-12-03T06:56:57.874Z,85.59
2022-12-03T06:57:57.848Z,85.60
2022-12-03T06:58:57.843Z,85.66
2022-12-03T06:59:57.845Z,85.61
2022-12-03T07:00:57.813Z,85.49
2022-12-03T07:01:57.830Z,85.23
2022-12-03T07:02:57.833Z,85.10
2022-12-03T07:03:57.773Z,84.93
2022-12-03T07:04:58.172Z,84.94
2022-12-03T07:05:57.773Z,85.04
2022-12-03T07:06:57.741Z,85.26
2022-12-03T07:07:57.763Z,85.44
2022-12-03T07:08:57.717Z,85.57
2022-12-03T07:09:57.694Z,85.60
2022-12-03T07:10:57.690Z,85.70
2022-12-03T07:11:57.703Z,85.56
2022-12-03T07:12:57.653Z,85.46
2022-12-03T07:14:03.054Z,85.38
2022-12-03T07:14:58.639Z,85.23
2022-12-03T07:15:57.718Z,85.00
2022-12-03T07:16:57.603Z,85.09
2022-12-03T07:17:57.612Z,85.21
2022-12-03T07:18:57.584Z,85.37
2022-12-03T07:19:57.572Z,85.54
2022-12-03T07:20:57.550Z,85.38
2022-12-03T07:21:57.543Z,85.29
2022-12-03T07:22:57.520Z,85.28
2022-12-03T07:23:57.559Z,85.23
2022-12-03T07:24:57.498Z,85.14
2022-12-03T07:25:58.498Z,85.14
2022-12-03T07:26:57.474Z,85.19
2022-12-03T07:27:57.471Z,85.19
2022-12-03T07:28:57.449Z,85.19
2022-12-03T07:29:57.461Z,85.39
2022-12-03T07:30:57.441Z,85.35
2022-12-03T07:31:57.419Z,85.53
2022-12-03T07:32:57.391Z,85.52
2022-12-03T07:33:57.390Z,85.59
2022-12-03T07:34:57.352Z,85.79
2022-12-03T07:35:57.371Z,85.93
2022-12-03T07:36:57.340Z,86.06
2022-12-03T07:37:57.340Z,86.08
2022-12-03T07:38:57.311Z,86.11
2022-12-03T07:39:57.310Z,86.12
2022-12-03T07:40:57.290Z,86.19
2022-12-03T07:41:57.309Z,86.23
2022-12-03T07:42:57.258Z,86.31
2022-12-03T07:43:57.260Z,86.30
2022-12-03T07:44:57.240Z,86.33
2022-12-03T07:45:57.247Z,86.32
2022-12-03T07:46:57.290Z,86.50
2022-12-03T07:47:57.223Z,86.59
2022-12-03T07:48:57.193Z,86.69
2022-12-03T07:49:57.182Z,86.74
2022-12-03T07:50:57.161Z,86.83
2022-12-03T07:51:57.168Z,86.89
2022-12-03T07:52:57.133Z,86.81
2022-12-03T07:53:57.139Z,86.73
2022-12-03T07:54:57.109Z,86.80
2022-12-03T07:55:57.098Z,86.42
2022-12-03T07:57:01.475Z,86.30
2022-12-03T07:57:57.066Z,86.11
2022-12-03T07:58:57.063Z,85.19
2022-12-03T07:59:57.062Z,84.56
2022-12-03T08:00:57.076Z,84.34
2022-12-03T08:01:57.037Z,84.37
2022-12-03T08:02:57.007Z,84.50
2022-12-03T08:03:56.987Z,84.67
2022-12-03T08:04:57.084Z,84.93
2022-12-03T08:05:57.013Z,85.23
2022-12-03T08:06:56.956Z,85.63
2022-12-03T08:07:56.990Z,86.00
2022-12-03T08:08:56.928Z,86.20
2022-12-03T08:09:56.910Z,86.24
2022-12-03T08:10:56.899Z,86.33
2022-12-03T08:11:56.917Z,86.39
2022-12-03T08:12:56.877Z,86.36
2022-12-03T08:13:56.856Z,86.29
2022-12-03T08:14:56.874Z,86.27
2022-12-03T08:15:56.906Z,86.44
2022-12-03T08:16:56.897Z,86.57
2022-12-03T08:17:56.822Z,86.49
2022-12-03T08:18:56.795Z,86.43
2022-12-03T08:19:56.775Z,86.19
2022-12-03T08:20:56.776Z,86.28
2022-12-03T08:22:01.248Z,86.31
2022-12-03T08:22:56.745Z,86.32
2022-12-03T08:23:56.756Z,86.43
2022-12-03T08:24:56.740Z,86.62
2022-12-03T08:25:56.704Z,86.53
2022-12-03T08:26:56.684Z,86.49
2022-12-03T08:27:56.674Z,86.41
2022-12-03T08:28:56.665Z,86.50
2022-12-03T08:29:56.684Z,86.65
2022-12-03T08:30:56.634Z,86.73
2022-12-03T08:31:56.660Z,86.97
2022-12-03T08:32:56.604Z,87.05
2022-12-03T08:33:56.604Z,87.09
2022-12-03T08:34:56.593Z,87.04
2022-12-03T08:35:56.614Z,87.03
2022-12-03T08:36:56.566Z,87.09
2022-12-03T08:37:56.545Z,87.06
2022-12-03T08:38:56.523Z,87.21
2022-12-03T08:39:56.524Z,87.38
2022-12-03T08:40:56.508Z,87.49
2022-12-03T08:41:56.534Z,87.59
2022-12-03T08:42:56.477Z,87.80
2022-12-03T08:43:56.475Z,87.86
2022-12-03T08:44:56.833Z,87.69
2022-12-03T08:45:56.476Z,87.47
2022-12-03T08:46:56.423Z,87.50
2022-12-03T08:47:56.442Z,87.74
2022-12-03T08:48:56.400Z,87.87
2022-12-03T08:49:56.395Z,87.72
2022-12-03T08:50:56.371Z,87.83
2022-12-03T08:51:56.372Z,87.82
2022-12-03T08:52:56.343Z,88.04
2022-12-03T08:54:01.247Z,88.21
2022-12-03T08:54:57.573Z,88.15
2022-12-03T08:55:56.314Z,88.05
2022-12-03T08:56:56.292Z,87.94
2022-12-03T08:57:56.289Z,87.82
2022-12-03T08:58:56.278Z,87.73
2022-12-03T08:59:56.291Z,87.75
2022-12-03T09:00:56.310Z,87.80
2022-12-03T09:01:56.231Z,87.93
2022-12-03T09:02:56.213Z,88.00
2022-12-03T09:03:56.241Z,88.00
2022-12-03T09:04:56.457Z,88.04
2022-12-03T09:05:56.227Z,88.17
2022-12-03T09:06:56.161Z,88.35
2022-12-03T09:07:56.236Z,88.45
2022-12-03T09:08:56.148Z,88.47
2022-12-03T09:09:56.131Z,88.41
2022-12-03T09:10:56.111Z,88.29
2022-12-03T09:11:56.131Z,88.41
2022-12-03T09:12:56.080Z,88.39
2022-12-03T09:13:56.080Z,88.41
2022-12-03T09:14:56.438Z,88.50
2022-12-03T09:15:56.052Z,88.61
2022-12-03T09:16:56.412Z,88.66
2022-12-03T09:17:56.042Z,88.63
2022-12-03T09:18:55.999Z,88.56
2022-12-03T09:19:56.251Z,88.54
2022-12-03T09:20:55.980Z,88.62
2022-12-03T09:21:55.970Z,88.64
2022-12-03T09:22:55.949Z,88.80
2022-12-03T09:23:55.990Z,88.70
2022-12-03T09:24:56.180Z,88.60
2022-12-03T09:25:55.933Z,88.45
2022-12-03T09:26:55.906Z,88.39
2022-12-03T09:27:55.898Z,87.90
2022-12-03T09:28:55.879Z,87.60
2022-12-03T09:29:55.898Z,87.44
2022-12-03T09:30:55.849Z,87.42
2022-12-03T09:31:55.910Z,87.26
2022-12-03T09:32:55.817Z,87.32
2022-12-03T09:33:55.817Z,86.99
2022-12-03T09:34:56.200Z,86.58
2022-12-03T09:35:55.818Z,86.35
2022-12-03T09:36:55.767Z,86.56
2022-12-03T09:37:55.760Z,86.64
2022-12-03T09:38:55.738Z,86.88
2022-12-03T09:39:55.738Z,87.00
2022-12-03T09:40:55.718Z,87.04
2022-12-03T09:41:55.747Z,87.19
2022-12-03T09:42:55.699Z,87.22
2022-12-03T09:44:04.454Z,87.51
2022-12-03T09:44:56.925Z,87.83
2022-12-03T09:45:55.744Z,88.04
2022-12-03T09:46:55.639Z,88.03
2022-12-03T09:47:55.654Z,87.96
2022-12-03T09:48:55.609Z,87.94
2022-12-03T09:49:55.833Z,87.99
2022-12-03T09:50:55.592Z,87.91
2022-12-03T09:51:55.596Z,88.12
2022-12-03T09:52:55.568Z,88.12
2022-12-03T09:53:55.570Z,88.16
2022-12-03T09:54:55.914Z,88.21
2022-12-03T09:55:55.526Z,88.22
2022-12-03T09:56:55.506Z,87.96
2022-12-03T09:57:55.495Z,87.93
2022-12-03T09:58:55.487Z,88.04
2022-12-03T09:59:55.865Z,87.99
2022-12-03T10:00:55.475Z,88.12
2022-12-03T10:01:55.513Z,88.30
2022-12-03T10:02:55.425Z,88.31
2022-12-03T10:03:55.425Z,88.39
2022-12-03T10:04:55.732Z,88.48
2022-12-03T10:05:55.435Z,88.40
2022-12-03T10:06:55.376Z,88.29
2022-12-03T10:07:55.412Z,88.24
2022-12-03T10:08:55.345Z,88.26
2022-12-03T10:09:55.600Z,88.05
2022-12-03T10:10:55.331Z,87.98
2022-12-03T10:11:55.345Z,87.95
2022-12-03T10:12:55.301Z,87.88
2022-12-03T10:13:55.300Z,87.85
2022-12-03T10:14:55.553Z,87.98
2022-12-03T10:15:55.265Z,87.98
2022-12-03T10:16:55.340Z,87.79
2022-12-03T10:17:55.283Z,87.93
2022-12-03T10:18:55.223Z,88.15
2022-12-03T10:19:55.457Z,88.18
2022-12-03T10:20:55.194Z,87.97
2022-12-03T10:21:55.192Z,87.96
2022-12-03T10:22:55.165Z,87.94
2022-12-03T10:23:55.575Z,87.96
2022-12-03T10:24:55.340Z,88.14
2022-12-03T10:25:55.132Z,88.25
2022-12-03T10:26:55.114Z,88.35
2022-12-03T10:27:55.102Z,88.18
2022-12-03T10:28:55.082Z,88.16
2022-12-03T10:29:55.422Z,88.12
2022-12-03T10:30:55.157Z,87.97
2022-12-03T10:31:55.051Z,87.78
2022-12-03T10:32:55.032Z,87.70
2022-12-03T10:33:55.030Z,87.68
2022-12-03T10:34:55.250Z,87.71
2022-12-03T10:35:55.022Z,87.64
2022-12-03T10:36:54.982Z,87.73
2022-12-03T10:37:54.972Z,87.81
2022-12-03T10:38:54.951Z,87.78
2022-12-03T10:39:56.247Z,87.79
2022-12-03T10:40:54.923Z,87.92
2022-12-03T10:41:54.950Z,87.93
2022-12-03T10:42:54.901Z,87.86
2022-12-03T10:43:54.900Z,87.79
2022-12-03T10:44:55.120Z,87.85
2022-12-03T10:45:56.737Z,87.46
2022-12-03T10:46:55.956Z,87.54
2022-12-03T10:47:54.922Z,87.66
2022-12-03T10:48:54.821Z,87.63
2022-12-03T10:49:54.818Z,87.65
2022-12-03T10:50:54.800Z,87.67
2022-12-03T10:51:54.790Z,87.75
2022-12-03T10:52:54.800Z,87.78
2022-12-03T10:53:54.790Z,87.77
2022-12-03T10:54:55.122Z,87.80
2022-12-03T10:55:54.740Z,88.01
2022-12-03T10:56:54.720Z,88.15
2022-12-03T10:57:54.711Z,88.30
2022-12-03T10:58:54.734Z,88.22
2022-12-03T10:59:54.687Z,88.24
2022-12-03T11:00:54.668Z,88.37
2022-12-03T11:01:54.717Z,88.47
2022-12-03T11:02:56.951Z,88.40
2022-12-03T11:03:54.707Z,88.21
2022-12-03T11:04:54.866Z,88.09
2022-12-03T11:05:54.608Z,88.12
2022-12-03T11:06:54.588Z,88.31
2022-12-03T11:07:54.708Z,88.39
2022-12-03T11:08:58.426Z,88.43
2022-12-03T11:09:55.599Z,88.52
2022-12-03T11:10:54.549Z,88.73
2022-12-03T11:11:54.521Z,88.76
2022-12-03T11:12:54.517Z,88.82
2022-12-03T11:13:54.498Z,88.86
2022-12-03T11:14:54.732Z,88.96
2022-12-03T11:15:54.605Z,88.89
2022-12-03T11:16:54.477Z,88.87
2022-12-03T11:17:54.448Z,88.93
2022-12-03T11:18:54.438Z,88.94
2022-12-03T11:19:54.418Z,88.86
2022-12-03T11:20:54.417Z,88.79
2022-12-03T11:21:54.418Z,88.60
2022-12-03T11:22:54.392Z,88.54
2022-12-03T11:23:54.366Z,88.42
2022-12-03T11:24:54.595Z,88.55
2022-12-03T11:25:54.345Z,88.62
2022-12-03T11:26:54.337Z,88.77
2022-12-03T11:27:54.336Z,88.76
2022-12-03T11:28:54.326Z,88.81
2022-12-03T11:29:54.294Z,88.75
2022-12-03T11:30:54.324Z,88.46
2022-12-03T11:31:54.266Z,88.28
2022-12-03T11:32:54.255Z,88.20
2022-12-03T11:33:54.265Z,88.19
2022-12-03T11:34:54.580Z,88.43
2022-12-03T11:35:54.208Z,88.49
2022-12-03T11:37:01.424Z,88.46
2022-12-03T11:37:55.185Z,88.47
2022-12-03T11:38:54.221Z,88.37
2022-12-03T11:39:54.611Z,88.46
2022-12-03T11:40:54.147Z,88.61
2022-12-03T11:41:54.136Z,88.71
2022-12-03T11:42:54.125Z,88.68
2022-12-03T11:43:54.105Z,88.67
2022-12-03T11:44:54.096Z,88.83
2022-12-03T11:45:57.266Z,88.85
2022-12-03T11:46:55.084Z,88.78
2022-12-03T11:47:54.061Z,88.83
2022-12-03T11:48:54.053Z,88.86
2022-12-03T11:49:54.297Z,88.92
2022-12-03T11:50:54.042Z,88.90
2022-12-03T11:51:54.057Z,88.89
2022-12-03T11:52:53.985Z,88.94
2022-12-03T11:53:53.985Z,88.88
2022-12-03T11:54:53.964Z,88.86
2022-12-03T11:55:53.954Z,88.74
2022-12-03T11:56:53.933Z,88.73
2022-12-03T11:57:53.943Z,88.72
2022-12-03T11:58:53.913Z,88.83
2022-12-03T11:59:54.116Z,88.83
2022-12-03T12:00:53.885Z,88.78
2022-12-03T12:01:53.873Z,88.83
2022-12-03T12:02:53.921Z,88.85
2022-12-03T12:03:54.056Z,88.86
2022-12-03T12:04:53.824Z,88.89
2022-12-03T12:05:53.823Z,88.89
2022-12-03T12:06:53.805Z,88.71
2022-12-03T12:07:53.877Z,88.74
2022-12-03T12:08:53.772Z,88.67
2022-12-03T12:09:54.272Z,88.69
2022-12-03T12:10:53.753Z,88.63
2022-12-03T12:11:53.742Z,88.43
2022-12-03T12:12:55.209Z,88.55
2022-12-03T12:13:53.721Z,88.60
2022-12-03T12:14:53.704Z,88.57
2022-12-03T12:15:53.809Z,88.61
2022-12-03T12:16:53.681Z,88.54
2022-12-03T12:17:53.661Z,88.52
2022-12-03T12:18:55.326Z,88.53
2022-12-03T12:19:54.618Z,88.65
2022-12-03T12:20:53.620Z,88.75
2022-12-03T12:21:53.650Z,88.74
2022-12-03T12:22:53.591Z,88.67
2022-12-03T12:23:53.613Z,88.79
2022-12-03T12:24:53.577Z,88.81
2022-12-03T12:25:54.476Z,88.74
2022-12-03T12:26:53.549Z,88.79
2022-12-03T12:27:53.571Z,88.85
2022-12-03T12:28:53.520Z,88.94
2022-12-03T12:29:53.916Z,88.92
2022-12-03T12:30:53.490Z,88.92
2022-12-03T12:31:54.274Z,88.89
2022-12-03T12:32:53.460Z,88.83
2022-12-03T12:33:53.471Z,88.75
2022-12-03T12:34:53.440Z,88.74
2022-12-03T12:35:53.429Z,88.60
2022-12-03T12:36:53.409Z,88.55
2022-12-03T12:37:58.538Z,88.44
2022-12-03T12:38:54.420Z,88.23
2022-12-03T12:39:53.719Z,88.10
2022-12-03T12:40:53.359Z,88.05
2022-12-03T12:41:53.350Z,87.99
2022-12-03T12:42:53.339Z,88.04
2022-12-03T12:43:53.327Z,88.19
2022-12-03T12:44:53.339Z,88.19
2022-12-03T12:45:53.299Z,88.29
2022-12-03T12:46:53.332Z,88.26
2022-12-03T12:47:53.355Z,88.27
2022-12-03T12:48:57.988Z,87.94
2022-12-03T12:49:54.520Z,87.86
2022-12-03T12:50:53.237Z,87.98
2022-12-03T12:51:53.217Z,88.01